sensor_id;sensor_type;location;lat;lon;timestamp;pressure;altitude;pressure_sealevel;temperature;humidity
30343;BME280;17145;49.902;8.680;'2023-04-09 01:59:35';100920;;;6;48
30343;BME280;17145;49.902;8.680;'2023-04-09 02:02:03';100920;;;6;48
30343;BME280;17145;49.902;8.680;'2023-04-09 02:04:31';100920;;;6;48
30343;BME280;17145;49.902;8.680;'2023-04-09 02:06:59';100920;;;6;48
30343;BME280;17145;49.902;8.680;'2023-04-09 02:09:27';100920;;;6;48
30343;BME280;17145;49.902;8.680;'2023-04-09 02:11:55';100910;;;6;48
30343;BME280;17145;49.902;8.680;'2023-04-09 02:14:22';100910;;;6;48
30343;BME280;17145;49.902;8.680;'2023-04-09 02:16:50';100910;;;6;48
30343;BME280;17145;49.902;8.680;'2023-04-09 02:19:21';100900;;;6;48
30343;BME280;17145;49.902;8.680;'2023-04-09 02:21:49';100900;;;6;48
30343;BME280;17145;49.902;8.680;'2023-04-09 02:24:16';100900;;;6;48
30343;BME280;17145;49.902;8.680;'2023-04-09 02:26:44';100900;;;6;48
30343;BME280;17145;49.902;8.680;'2023-04-09 02:29:11';100900;;;6;48
30343;BME280;17145;49.902;8.680;'2023-04-09 02:31:40';100900;;;5;48
30343;BME280;17145;49.902;8.680;'2023-04-09 02:34:09';100900;;;6;48
30343;BME280;17145;49.902;8.680;'2023-04-09 02:36:37';100900;;;6;48
30343;BME280;17145;49.902;8.680;'2023-04-09 02:39:08';100900;;;5;49
30343;BME280;17145;49.902;8.680;'2023-04-09 02:41:36';100890;;;5;48
30343;BME280;17145;49.902;8.680;'2023-04-09 02:44:03';100900;;;6;48
30343;BME280;17145;49.902;8.680;'2023-04-09 02:46:31';100900;;;6;48
30343;BME280;17145;49.902;8.680;'2023-04-09 02:48:59';100900;;;5;49
30343;BME280;17145;49.902;8.680;'2023-04-09 02:51:30';100900;;;5;49
30343;BME280;17145;49.902;8.680;'2023-04-09 02:53:58';100900;;;5;48
30343;BME280;17145;49.902;8.680;'2023-04-09 02:56:27';100900;;;5;48
30343;BME280;17145;49.902;8.680;'2023-04-09 02:58:56';100900;;;5;49
30343;BME280;17145;49.902;8.680;'2023-04-09 03:01:24';100900;;;5;48
30343;BME280;17145;49.902;8.680;'2023-04-09 03:03:53';100900;;;5;48
30343;BME280;17145;49.902;8.680;'2023-04-09 03:06:30';100900;;;5;48
30343;BME280;17145;49.902;8.680;'2023-04-09 03:09:05';100910;;;5;48
30343;BME280;17145;49.902;8.680;'2023-04-09 03:11:42';100910;;;5;48
30343;BME280;17145;49.902;8.680;'2023-04-09 03:14:19';100910;;;5;49
30343;BME280;17145;49.902;8.680;'2023-04-09 03:16:57';100910;;;5;49
30343;BME280;17145;49.902;8.680;'2023-04-09 03:19:40';100910;;;5;49
30343;BME280;17145;49.902;8.680;'2023-04-09 03:22:18';100910;;;5;49
30343;BME280;17145;49.902;8.680;'2023-04-09 03:24:59';100910;;;5;49
30343;BME280;17145;49.902;8.680;'2023-04-09 03:27:36';100910;;;5;49
30343;BME280;17145;49.902;8.680;'2023-04-09 03:30:05';100910;;;5;49
30343;BME280;17145;49.902;8.680;'2023-04-09 03:32:37';100910;;;5;49
30343;BME280;17145;49.902;8.680;'2023-04-09 03:35:07';100910;;;5;49
30343;BME280;17145;49.902;8.680;'2023-04-09 03:37:36';100910;;;5;49
30343;BME280;17145;49.902;8.680;'2023-04-09 03:40:06';100900;;;5;49
30343;BME280;17145;49.902;8.680;'2023-04-09 03:42:35';100900;;;5;49
30343;BME280;17145;49.902;8.680;'2023-04-09 03:45:05';100910;;;5;49
30343;BME280;17145;49.902;8.680;'2023-04-09 03:47:34';100910;;;5;49
30343;BME280;17145;49.902;8.680;'2023-04-09 03:50:02';100900;;;5;49
30343;BME280;17145;49.902;8.680;'2023-04-09 03:52:31';100900;;;5;49
30343;BME280;17145;49.902;8.680;'2023-04-09 03:55:00';100900;;;5;49
30343;BME280;17145;49.902;8.680;'2023-04-09 03:57:27';100910;;;5;49
30343;BME280;17145;49.902;8.680;'2023-04-09 03:59:55';100900;;;5;49
30343;BME280;17145;49.902;8.680;'2023-04-09 04:02:32';100910;;;5;49
30343;BME280;17145;49.902;8.680;'2023-04-09 04:05:06';100910;;;4;49
30343;BME280;17145;49.902;8.680;'2023-04-09 04:07:39';100910;;;5;49
30343;BME280;17145;49.902;8.680;'2023-04-09 04:10:12';100910;;;5;49
30343;BME280;17145;49.902;8.680;'2023-04-09 04:12:47';100920;;;5;49
30343;BME280;17145;49.902;8.680;'2023-04-09 04:15:15';100910;;;5;49
30343;BME280;17145;49.902;8.680;'2023-04-09 04:17:43';100910;;;4;49
30343;BME280;17145;49.902;8.680;'2023-04-09 04:20:15';100910;;;5;49
30343;BME280;17145;49.902;8.680;'2023-04-09 04:22:43';100920;;;5;49
30343;BME280;17145;49.902;8.680;'2023-04-09 04:25:11';100920;;;5;49
30343;BME280;17145;49.902;8.680;'2023-04-09 04:27:39';100910;;;5;49
30343;BME280;17145;49.902;8.680;'2023-04-09 04:30:08';100910;;;4;49
30343;BME280;17145;49.902;8.680;'2023-04-09 04:32:36';100910;;;4;49
30343;BME280;17145;49.902;8.680;'2023-04-09 04:35:04';100910;;;5;49
30343;BME280;17145;49.902;8.680;'2023-04-09 04:37:32';100910;;;5;49
30343;BME280;17145;49.902;8.680;'2023-04-09 04:39:59';100910;;;5;49
30343;BME280;17145;49.902;8.680;'2023-04-09 04:42:27';100910;;;4;49
30343;BME280;17145;49.902;8.680;'2023-04-09 04:44:56';100910;;;4;49
30343;BME280;17145;49.902;8.680;'2023-04-09 04:47:26';100910;;;4;49
30343;BME280;17145;49.902;8.680;'2023-04-09 04:49:54';100910;;;4;49
30343;BME280;17145;49.902;8.680;'2023-04-09 04:52:21';100910;;;4;49
30343;BME280;17145;49.902;8.680;'2023-04-09 04:54:49';100910;;;4;49
30343;BME280;17145;49.902;8.680;'2023-04-09 04:57:17';100910;;;4;50
30343;BME280;17145;49.902;8.680;'2023-04-09 04:59:46';100900;;;4;50
30343;BME280;17145;49.902;8.680;'2023-04-09 05:02:14';100900;;;4;50
30343;BME280;17145;49.902;8.680;'2023-04-09 05:04:42';100900;;;4;50
30343;BME280;17145;49.902;8.680;'2023-04-09 05:07:09';100900;;;4;50
30343;BME280;17145;49.902;8.680;'2023-04-09 05:09:36';100890;;;4;50
30343;BME280;17145;49.902;8.680;'2023-04-09 05:12:07';100890;;;4;50
30343;BME280;17145;49.902;8.680;'2023-04-09 05:14:37';100890;;;4;50
30343;BME280;17145;49.902;8.680;'2023-04-09 05:17:04';100890;;;4;50
30343;BME280;17145;49.902;8.680;'2023-04-09 05:19:34';100890;;;4;50
30343;BME280;17145;49.902;8.680;'2023-04-09 05:22:02';100890;;;4;50
30343;BME280;17145;49.902;8.680;'2023-04-09 05:24:31';100890;;;4;50
30343;BME280;17145;49.902;8.680;'2023-04-09 05:27:00';100890;;;4;50
30343;BME280;17145;49.902;8.680;'2023-04-09 05:29:28';100890;;;4;50
30343;BME280;17145;49.902;8.680;'2023-04-09 05:31:56';100890;;;4;50
30343;BME280;17145;49.902;8.680;'2023-04-09 05:34:24';100890;;;4;50
30343;BME280;17145;49.902;8.680;'2023-04-09 05:36:52';100890;;;4;50
30343;BME280;17145;49.902;8.680;'2023-04-09 05:39:20';100890;;;4;50
30343;BME280;17145;49.902;8.680;'2023-04-09 05:41:47';100890;;;4;50
30343;BME280;17145;49.902;8.680;'2023-04-09 05:44:15';100890;;;4;50
30343;BME280;17145;49.902;8.680;'2023-04-09 05:46:43';100890;;;4;50
30343;BME280;17145;49.902;8.680;'2023-04-09 05:49:11';100890;;;4;50
30343;BME280;17145;49.902;8.680;'2023-04-09 05:51:40';100890;;;4;49
30343;BME280;17145;49.902;8.680;'2023-04-09 05:54:08';100890;;;4;49
30343;BME280;17145;49.902;8.680;'2023-04-09 05:56:36';100890;;;4;49
30343;BME280;17145;49.902;8.680;'2023-04-09 05:59:05';100890;;;4;49
30343;BME280;17145;49.902;8.680;'2023-04-09 06:01:32';100890;;;4;49
30343;BME280;17145;49.902;8.680;'2023-04-09 06:04:01';100890;;;4;49
30343;BME280;17145;49.902;8.680;'2023-04-09 06:06:31';100890;;;4;49
30343;BME280;17145;49.902;8.680;'2023-04-09 06:08:59';100890;;;4;49
30343;BME280;17145;49.902;8.680;'2023-04-09 06:11:27';100890;;;4;49
30343;BME280;17145;49.902;8.680;'2023-04-09 06:13:56';100880;;;4;49
30343;BME280;17145;49.902;8.680;'2023-04-09 06:16:24';100880;;;4;49
30343;BME280;17145;49.902;8.680;'2023-04-09 06:18:53';100880;;;4;49
30343;BME280;17145;49.902;8.680;'2023-04-09 06:21:20';100890;;;4;49
30343;BME280;17145;49.902;8.680;'2023-04-09 06:23:50';100890;;;4;49
30343;BME280;17145;49.902;8.680;'2023-04-09 06:26:18';100890;;;3;49
30343;BME280;17145;49.902;8.680;'2023-04-09 06:28:45';100890;;;4;49
30343;BME280;17145;49.902;8.680;'2023-04-09 06:31:13';100890;;;4;49
30343;BME280;17145;49.902;8.680;'2023-04-09 06:33:41';100890;;;3;49
30343;BME280;17145;49.902;8.680;'2023-04-09 06:36:11';100900;;;4;49
30343;BME280;17145;49.902;8.680;'2023-04-09 06:38:39';100900;;;4;50
30343;BME280;17145;49.902;8.680;'2023-04-09 06:41:09';100900;;;4;50
30343;BME280;17145;49.902;8.680;'2023-04-09 06:43:37';100900;;;4;50
30343;BME280;17145;49.902;8.680;'2023-04-09 06:46:04';100900;;;4;50
30343;BME280;17145;49.902;8.680;'2023-04-09 06:48:32';100900;;;3;50
30343;BME280;17145;49.902;8.680;'2023-04-09 06:51:01';100900;;;3;50
30343;BME280;17145;49.902;8.680;'2023-04-09 06:53:28';100900;;;4;50
30343;BME280;17145;49.902;8.680;'2023-04-09 06:55:56';100910;;;4;50
30343;BME280;17145;49.902;8.680;'2023-04-09 06:58:24';100910;;;4;50
30343;BME280;17145;49.902;8.680;'2023-04-09 07:00:52';100910;;;3;50
30343;BME280;17145;49.902;8.680;'2023-04-09 07:03:20';100910;;;4;50
30343;BME280;17145;49.902;8.680;'2023-04-09 07:05:48';100900;;;4;50
30343;BME280;17145;49.902;8.680;'2023-04-09 07:08:16';100910;;;3;50
30343;BME280;17145;49.902;8.680;'2023-04-09 07:10:43';100900;;;4;51
30343;BME280;17145;49.902;8.680;'2023-04-09 07:13:10';100900;;;4;51
30343;BME280;17145;49.902;8.680;'2023-04-09 07:15:39';100900;;;4;51
30343;BME280;17145;49.902;8.680;'2023-04-09 07:18:08';100900;;;3;51
30343;BME280;17145;49.902;8.680;'2023-04-09 07:20:35';100910;;;3;51
30343;BME280;17145;49.902;8.680;'2023-04-09 07:23:04';100910;;;3;51
30343;BME280;17145;49.902;8.680;'2023-04-09 07:25:32';100910;;;4;52
30343;BME280;17145;49.902;8.680;'2023-04-09 07:28:02';100910;;;4;52
30343;BME280;17145;49.902;8.680;'2023-04-09 07:30:30';100910;;;4;52
30343;BME280;17145;49.902;8.680;'2023-04-09 07:32:57';100910;;;4;52
30343;BME280;17145;49.902;8.680;'2023-04-09 07:35:26';100910;;;4;52
30343;BME280;17145;49.902;8.680;'2023-04-09 07:37:54';100910;;;4;53
30343;BME280;17145;49.902;8.680;'2023-04-09 07:40:23';100910;;;4;53
30343;BME280;17145;49.902;8.680;'2023-04-09 07:42:50';100910;;;4;53
30343;BME280;17145;49.902;8.680;'2023-04-09 07:45:18';100910;;;4;53
30343;BME280;17145;49.902;8.680;'2023-04-09 07:47:46';100910;;;4;52
30343;BME280;17145;49.902;8.680;'2023-04-09 07:50:14';100920;;;4;52
30343;BME280;17145;49.902;8.680;'2023-04-09 07:52:41';100920;;;4;52
30343;BME280;17145;49.902;8.680;'2023-04-09 07:55:09';100920;;;5;51
30343;BME280;17145;49.902;8.680;'2023-04-09 07:57:37';100920;;;4;52
30343;BME280;17145;49.902;8.680;'2023-04-09 08:00:06';100920;;;4;52
30343;BME280;17145;49.902;8.680;'2023-04-09 08:02:35';100910;;;4;52
30343;BME280;17145;49.902;8.680;'2023-04-09 08:05:03';100920;;;5;52
30343;BME280;17145;49.902;8.680;'2023-04-09 08:07:32';100910;;;5;52
30343;BME280;17145;49.902;8.680;'2023-04-09 08:09:59';100910;;;5;52
30343;BME280;17145;49.902;8.680;'2023-04-09 08:12:27';100910;;;5;52
30343;BME280;17145;49.902;8.680;'2023-04-09 08:14:55';100910;;;5;52
30343;BME280;17145;49.902;8.680;'2023-04-09 08:17:23';100920;;;5;52
30343;BME280;17145;49.902;8.680;'2023-04-09 08:19:52';100920;;;5;52
30343;BME280;17145;49.902;8.680;'2023-04-09 08:22:20';100920;;;5;52
30343;BME280;17145;49.902;8.680;'2023-04-09 08:24:47';100920;;;5;52
30343;BME280;17145;49.902;8.680;'2023-04-09 08:27:15';100920;;;5;52
30343;BME280;17145;49.902;8.680;'2023-04-09 08:29:43';100920;;;5;52
30343;BME280;17145;49.902;8.680;'2023-04-09 08:32:11';100920;;;5;53
30343;BME280;17145;49.902;8.680;'2023-04-09 08:34:40';100930;;;5;53
30343;BME280;17145;49.902;8.680;'2023-04-09 08:37:08';100920;;;5;53
30343;BME280;17145;49.902;8.680;'2023-04-09 08:39:36';100930;;;5;53
30343;BME280;17145;49.902;8.680;'2023-04-09 08:42:04';100930;;;5;53
30343;BME280;17145;49.902;8.680;'2023-04-09 08:44:33';100930;;;6;53
30343;BME280;17145;49.902;8.680;'2023-04-09 08:47:01';100920;;;6;53
30343;BME280;17145;49.902;8.680;'2023-04-09 08:49:28';100920;;;6;53
30343;BME280;17145;49.902;8.680;'2023-04-09 08:51:58';100930;;;6;53
30343;BME280;17145;49.902;8.680;'2023-04-09 08:54:25';100930;;;6;53
30343;BME280;17145;49.902;8.680;'2023-04-09 08:56:53';100920;;;6;53
30343;BME280;17145;49.902;8.680;'2023-04-09 08:59:21';100920;;;6;53
30343;BME280;17145;49.902;8.680;'2023-04-09 09:01:49';100920;;;6;53
30343;BME280;17145;49.902;8.680;'2023-04-09 09:04:17';100920;;;7;53
30343;BME280;17145;49.902;8.680;'2023-04-09 09:06:44';100930;;;7;53
30343;BME280;17145;49.902;8.680;'2023-04-09 09:09:12';100920;;;7;53
30343;BME280;17145;49.902;8.680;'2023-04-09 09:11:40';100920;;;7;52
30343;BME280;17145;49.902;8.680;'2023-04-09 09:14:08';100920;;;7;52
30343;BME280;17145;49.902;8.680;'2023-04-09 09:16:36';100920;;;8;51
30343;BME280;17145;49.902;8.680;'2023-04-09 09:19:05';100910;;;7;51
30343;BME280;17145;49.902;8.680;'2023-04-09 09:21:33';100910;;;8;51
30343;BME280;17145;49.902;8.680;'2023-04-09 09:24:01';100910;;;8;51
30343;BME280;17145;49.902;8.680;'2023-04-09 09:26:29';100910;;;8;50
30343;BME280;17145;49.902;8.680;'2023-04-09 09:28:57';100910;;;8;50
30343;BME280;17145;49.902;8.680;'2023-04-09 09:31:26';100920;;;8;50
30343;BME280;17145;49.902;8.680;'2023-04-09 09:33:53';100920;;;8;49
30343;BME280;17145;49.902;8.680;'2023-04-09 09:36:23';100920;;;8;49
30343;BME280;17145;49.902;8.680;'2023-04-09 09:38:50';100920;;;8;49
30343;BME280;17145;49.902;8.680;'2023-04-09 09:41:18';100920;;;8;49
30343;BME280;17145;49.902;8.680;'2023-04-09 09:43:46';100920;;;8;49
30343;BME280;17145;49.902;8.680;'2023-04-09 09:46:18';100920;;;9;48
30343;BME280;17145;49.902;8.680;'2023-04-09 09:48:46';100920;;;9;48
30343;BME280;17145;49.902;8.680;'2023-04-09 09:51:15';100920;;;9;48
30343;BME280;17145;49.902;8.680;'2023-04-09 09:53:43';100920;;;9;47
30343;BME280;17145;49.902;8.680;'2023-04-09 09:56:11';100930;;;9;47
30343;BME280;17145;49.902;8.680;'2023-04-09 09:58:40';100920;;;9;47
30343;BME280;17145;49.902;8.680;'2023-04-09 10:01:08';100920;;;9;46
30343;BME280;17145;49.902;8.680;'2023-04-09 10:03:35';100920;;;9;46
30343;BME280;17145;49.902;8.680;'2023-04-09 10:06:03';100930;;;9;46
30343;BME280;17145;49.902;8.680;'2023-04-09 10:08:32';100930;;;9;46
30343;BME280;17145;49.902;8.680;'2023-04-09 10:11:01';100930;;;10;46
30343;BME280;17145;49.902;8.680;'2023-04-09 10:13:29';100940;;;10;45
30343;BME280;17145;49.902;8.680;'2023-04-09 10:16:00';100940;;;10;45
30343;BME280;17145;49.902;8.680;'2023-04-09 10:18:27';100940;;;9;45
30343;BME280;17145;49.902;8.680;'2023-04-09 10:20:56';100940;;;10;45
30343;BME280;17145;49.902;8.680;'2023-04-09 10:23:25';100940;;;10;44
30343;BME280;17145;49.902;8.680;'2023-04-09 10:25:53';100940;;;10;44
30343;BME280;17145;49.902;8.680;'2023-04-09 10:28:21';100940;;;10;44
30343;BME280;17145;49.902;8.680;'2023-04-09 10:30:49';100940;;;10;44
30343;BME280;17145;49.902;8.680;'2023-04-09 10:33:16';100940;;;10;44
30343;BME280;17145;49.902;8.680;'2023-04-09 10:35:44';100940;;;10;44
30343;BME280;17145;49.902;8.680;'2023-04-09 10:38:13';100950;;;10;43
30343;BME280;17145;49.902;8.680;'2023-04-09 10:40:41';100950;;;11;44
30343;BME280;17145;49.902;8.680;'2023-04-09 10:43:13';100940;;;11;43
30343;BME280;17145;49.902;8.680;'2023-04-09 10:45:41';100940;;;10;43
30343;BME280;17145;49.902;8.680;'2023-04-09 10:48:12';100950;;;10;43
30343;BME280;17145;49.902;8.680;'2023-04-09 10:50:41';100950;;;11;42
30343;BME280;17145;49.902;8.680;'2023-04-09 10:53:09';100950;;;11;43
30343;BME280;17145;49.902;8.680;'2023-04-09 10:55:39';100950;;;11;43
30343;BME280;17145;49.902;8.680;'2023-04-09 10:58:10';100950;;;11;43
30343;BME280;17145;49.902;8.680;'2023-04-09 11:00:38';100950;;;11;43
30343;BME280;17145;49.902;8.680;'2023-04-09 11:03:07';100940;;;11;43
30343;BME280;17145;49.902;8.680;'2023-04-09 11:05:37';100950;;;11;42
30343;BME280;17145;49.902;8.680;'2023-04-09 11:08:06';100940;;;12;42
30343;BME280;17145;49.902;8.680;'2023-04-09 11:10:39';100950;;;12;42
30343;BME280;17145;49.902;8.680;'2023-04-09 11:13:17';100950;;;12;42
30343;BME280;17145;49.902;8.680;'2023-04-09 11:15:45';100940;;;12;41
30343;BME280;17145;49.902;8.680;'2023-04-09 11:18:13';100940;;;11;41
30343;BME280;17145;49.902;8.680;'2023-04-09 11:20:42';100940;;;12;41
30343;BME280;17145;49.902;8.680;'2023-04-09 11:23:10';100940;;;12;41
30343;BME280;17145;49.902;8.680;'2023-04-09 11:25:40';100940;;;12;40
30343;BME280;17145;49.902;8.680;'2023-04-09 11:28:10';100940;;;12;39
30343;BME280;17145;49.902;8.680;'2023-04-09 11:30:38';100940;;;12;39
30343;BME280;17145;49.902;8.680;'2023-04-09 11:33:08';100940;;;12;39
30343;BME280;17145;49.902;8.680;'2023-04-09 11:35:47';100940;;;13;39
30343;BME280;17145;49.902;8.680;'2023-04-09 11:38:16';100940;;;12;39
30343;BME280;17145;49.902;8.680;'2023-04-09 11:40:46';100940;;;12;38
30343;BME280;17145;49.902;8.680;'2023-04-09 11:43:15';100940;;;13;38
30343;BME280;17145;49.902;8.680;'2023-04-09 11:45:45';100940;;;13;39
30343;BME280;17145;49.902;8.680;'2023-04-09 11:48:14';100930;;;12;38
30343;BME280;17145;49.902;8.680;'2023-04-09 11:50:48';100940;;;13;39
30343;BME280;17145;49.902;8.680;'2023-04-09 11:53:21';100930;;;13;37
30343;BME280;17145;49.902;8.680;'2023-04-09 11:55:52';100930;;;13;37
30343;BME280;17145;49.902;8.680;'2023-04-09 11:58:29';100930;;;13;37
30343;BME280;17145;49.902;8.680;'2023-04-09 12:00:59';100920;;;13;38
30343;BME280;17145;49.902;8.680;'2023-04-09 12:03:32';100920;;;13;37
30343;BME280;17145;49.902;8.680;'2023-04-09 12:06:02';100910;;;13;36
30343;BME280;17145;49.902;8.680;'2023-04-09 12:08:31';100910;;;14;36
30343;BME280;17145;49.902;8.680;'2023-04-09 12:11:00';100910;;;13;35
30343;BME280;17145;49.902;8.680;'2023-04-09 12:13:34';100910;;;14;35
30343;BME280;17145;49.902;8.680;'2023-04-09 12:16:03';100910;;;14;36
30343;BME280;17145;49.902;8.680;'2023-04-09 12:18:31';100910;;;14;35
30343;BME280;17145;49.902;8.680;'2023-04-09 12:21:05';100910;;;14;34
30343;BME280;17145;49.902;8.680;'2023-04-09 12:23:38';100900;;;14;34
30343;BME280;17145;49.902;8.680;'2023-04-09 12:26:06';100900;;;14;33
30343;BME280;17145;49.902;8.680;'2023-04-09 12:28:35';100900;;;14;34
30343;BME280;17145;49.902;8.680;'2023-04-09 12:31:04';100900;;;14;33
30343;BME280;17145;49.902;8.680;'2023-04-09 12:33:32';100900;;;14;33
30343;BME280;17145;49.902;8.680;'2023-04-09 12:36:03';100900;;;14;33
30343;BME280;17145;49.902;8.680;'2023-04-09 12:38:36';100890;;;14;34
30343;BME280;17145;49.902;8.680;'2023-04-09 12:41:15';100890;;;14;33
30343;BME280;17145;49.902;8.680;'2023-04-09 12:43:46';100890;;;14;32
30343;BME280;17145;49.902;8.680;'2023-04-09 12:46:26';100880;;;14;32
30343;BME280;17145;49.902;8.680;'2023-04-09 12:49:06';100890;;;14;33
30343;BME280;17145;49.902;8.680;'2023-04-09 12:51:35';100890;;;14;33
30343;BME280;17145;49.902;8.680;'2023-04-09 12:54:10';100890;;;14;32
30343;BME280;17145;49.902;8.680;'2023-04-09 12:56:38';100880;;;14;33
30343;BME280;17145;49.902;8.680;'2023-04-09 12:59:06';100890;;;14;32
30343;BME280;17145;49.902;8.680;'2023-04-09 13:01:34';100890;;;14;33
30343;BME280;17145;49.902;8.680;'2023-04-09 13:04:12';100890;;;14;31
30343;BME280;17145;49.902;8.680;'2023-04-09 13:06:44';100880;;;14;31
30343;BME280;17145;49.902;8.680;'2023-04-09 13:09:11';100880;;;14;31
30343;BME280;17145;49.902;8.680;'2023-04-09 13:11:39';100880;;;14;31
30343;BME280;17145;49.902;8.680;'2023-04-09 13:14:07';100880;;;14;32
30343;BME280;17145;49.902;8.680;'2023-04-09 13:16:35';100870;;;14;31
30343;BME280;17145;49.902;8.680;'2023-04-09 13:19:03';100870;;;14;30
30343;BME280;17145;49.902;8.680;'2023-04-09 13:21:32';100870;;;14;31
30343;BME280;17145;49.902;8.680;'2023-04-09 13:23:59';100870;;;14;31
30343;BME280;17145;49.902;8.680;'2023-04-09 13:26:34';100860;;;15;31
30343;BME280;17145;49.902;8.680;'2023-04-09 13:29:05';100860;;;15;31
30343;BME280;17145;49.902;8.680;'2023-04-09 13:31:33';100860;;;15;31
30343;BME280;17145;49.902;8.680;'2023-04-09 13:34:01';100860;;;15;31
30343;BME280;17145;49.902;8.680;'2023-04-09 13:36:29';100860;;;15;30
30343;BME280;17145;49.902;8.680;'2023-04-09 13:38:56';100860;;;15;29
30343;BME280;17145;49.902;8.680;'2023-04-09 13:41:33';100860;;;15;28
30343;BME280;17145;49.902;8.680;'2023-04-09 13:44:03';100870;;;15;29
30343;BME280;17145;49.902;8.680;'2023-04-09 13:46:32';100860;;;15;29
30343;BME280;17145;49.902;8.680;'2023-04-09 13:49:01';100860;;;15;28
30343;BME280;17145;49.902;8.680;'2023-04-09 13:51:29';100860;;;15;28
30343;BME280;17145;49.902;8.680;'2023-04-09 13:54:01';100860;;;15;28
30343;BME280;17145;49.902;8.680;'2023-04-09 13:56:28';100860;;;16;28
30343;BME280;17145;49.902;8.680;'2023-04-09 13:58:56';100860;;;16;28
30343;BME280;17145;49.902;8.680;'2023-04-09 14:01:24';100850;;;16;27
30343;BME280;17145;49.902;8.680;'2023-04-09 14:03:53';100860;;;16;28
30343;BME280;17145;49.902;8.680;'2023-04-09 14:06:21';100850;;;16;27
30343;BME280;17145;49.902;8.680;'2023-04-09 14:08:52';100860;;;16;27
30343;BME280;17145;49.902;8.680;'2023-04-09 14:11:27';100860;;;16;26
30343;BME280;17145;49.902;8.680;'2023-04-09 14:13:58';100860;;;15;27
30343;BME280;17145;49.902;8.680;'2023-04-09 14:16:26';100860;;;15;28
30343;BME280;17145;49.902;8.680;'2023-04-09 14:18:54';100860;;;15;28
30343;BME280;17145;49.902;8.680;'2023-04-09 14:21:23';100860;;;15;28
30343;BME280;17145;49.902;8.680;'2023-04-09 14:23:51';100850;;;15;28
30343;BME280;17145;49.902;8.680;'2023-04-09 14:26:19';100850;;;15;28
30343;BME280;17145;49.902;8.680;'2023-04-09 14:28:47';100850;;;15;28
30343;BME280;17145;49.902;8.680;'2023-04-09 14:31:15';100850;;;15;28
30343;BME280;17145;49.902;8.680;'2023-04-09 14:33:43';100850;;;15;28
30343;BME280;17145;49.902;8.680;'2023-04-09 14:36:12';100850;;;15;29
30343;BME280;17145;49.902;8.680;'2023-04-09 14:38:42';100840;;;15;29
30343;BME280;17145;49.902;8.680;'2023-04-09 14:41:09';100840;;;15;29
30343;BME280;17145;49.902;8.680;'2023-04-09 14:43:36';100840;;;16;29
30343;BME280;17145;49.902;8.680;'2023-04-09 14:46:05';100830;;;16;28
30343;BME280;17145;49.902;8.680;'2023-04-09 14:48:33';100830;;;17;28
30343;BME280;17145;49.902;8.680;'2023-04-09 14:51:02';100820;;;18;27
30343;BME280;17145;49.902;8.680;'2023-04-09 14:53:31';100820;;;18;25
30343;BME280;17145;49.902;8.680;'2023-04-09 14:55:58';100810;;;18;25
30343;BME280;17145;49.902;8.680;'2023-04-09 14:58:27';100810;;;18;25
30343;BME280;17145;49.902;8.680;'2023-04-09 15:00:55';100800;;;18;24
30343;BME280;17145;49.902;8.680;'2023-04-09 15:03:23';100800;;;18;24
30343;BME280;17145;49.902;8.680;'2023-04-09 15:05:51';100800;;;18;25
30343;BME280;17145;49.902;8.680;'2023-04-09 15:08:19';100800;;;17;25
30343;BME280;17145;49.902;8.680;'2023-04-09 15:10:46';100800;;;17;25
30343;BME280;17145;49.902;8.680;'2023-04-09 15:13:14';100790;;;17;25
30343;BME280;17145;49.902;8.680;'2023-04-09 15:15:42';100790;;;17;25
30343;BME280;17145;49.902;8.680;'2023-04-09 15:18:11';100790;;;17;27
30343;BME280;17145;49.902;8.680;'2023-04-09 15:20:38';100800;;;17;27
30343;BME280;17145;49.902;8.680;'2023-04-09 15:23:07';100800;;;17;27
30343;BME280;17145;49.902;8.680;'2023-04-09 15:25:35';100800;;;17;26
30343;BME280;17145;49.902;8.680;'2023-04-09 15:28:05';100790;;;17;26
30343;BME280;17145;49.902;8.680;'2023-04-09 15:30:34';100790;;;16;27
30343;BME280;17145;49.902;8.680;'2023-04-09 15:33:02';100790;;;16;27
30343;BME280;17145;49.902;8.680;'2023-04-09 15:35:31';100790;;;16;26
30343;BME280;17145;49.902;8.680;'2023-04-09 15:37:59';100790;;;16;28
30343;BME280;17145;49.902;8.680;'2023-04-09 15:40:27';100780;;;16;28
30343;BME280;17145;49.902;8.680;'2023-04-09 15:42:55';100780;;;16;28
30343;BME280;17145;49.902;8.680;'2023-04-09 15:45:23';100770;;;16;26
30343;BME280;17145;49.902;8.680;'2023-04-09 15:47:50';100770;;;16;26
30343;BME280;17145;49.902;8.680;'2023-04-09 15:50:19';100760;;;16;26
30343;BME280;17145;49.902;8.680;'2023-04-09 15:52:46';100760;;;17;26
30343;BME280;17145;49.902;8.680;'2023-04-09 15:55:15';100750;;;17;24
30343;BME280;17145;49.902;8.680;'2023-04-09 15:57:42';100740;;;17;25
30343;BME280;17145;49.902;8.680;'2023-04-09 16:00:10';100740;;;18;25
30343;BME280;17145;49.902;8.680;'2023-04-09 16:02:38';100740;;;18;24
30343;BME280;17145;49.902;8.680;'2023-04-09 16:05:06';100740;;;19;24
30343;BME280;17145;49.902;8.680;'2023-04-09 16:07:34';100740;;;19;23
30343;BME280;17145;49.902;8.680;'2023-04-09 16:10:03';100740;;;19;23
30343;BME280;17145;49.902;8.680;'2023-04-09 16:12:31';100730;;;19;22
30343;BME280;17145;49.902;8.680;'2023-04-09 16:14:59';100730;;;20;22
30343;BME280;17145;49.902;8.680;'2023-04-09 16:17:26';100720;;;21;20
30343;BME280;17145;49.902;8.680;'2023-04-09 16:19:54';100730;;;20;21
30343;BME280;17145;49.902;8.680;'2023-04-09 16:22:24';100730;;;21;20
30343;BME280;17145;49.902;8.680;'2023-04-09 16:24:52';100730;;;21;20